Startpagina
METAR-TAF:

METAR-TAF

Vliegvelden :

Cajamarca, Peru

breedte: 07-08S, lengte: 078-28W, hoogte: 2620 m

Actueel weer

Dit bericht is 3 uur en het 1 minuten geleden gemaakt, om 23:00 UTC
Wind 2 kt uit variabele richting
Temperatuur 13°C
Vochtigheid 88%
Druk 1027 hPa
Zicht 10 km of meer
Verspreide wolken op 2000 ft
Geheel bewolkt op 4300 ft
lichte regen

METAR: SPJR 062300Z VRB02KT 9999 -RA SCT020 OVC043 13/11 Q1027 RMK PP002

Tijdstip: 21:01 (02:01 UTC)

Verwachting

Dit bericht is 9 uur en het 1 minuten geleden gemaakt, om 17:00 UTC
Verwachting geldig van 06 om 18 UTC tot 07 om 18 UTC
Wind 4 kt uit variabele richting
Zicht 10 km of meer
Verspreide wolken op 3000 ft
Gebroken wolken op 5000 ft
Tijdelijke
van 06 om 20 UTC tot 06 om 23 UTC
Zicht: 7000 m
Verspreide wolken op 2500 ft
Gebroken wolken op 4000 ft
regen

TAF: SPJR 061700Z 0618/0718 VRB04KT 9999 SCT030 BKN050 TX22/0619Z TN11/0711Z TEMPO 0620/0623 7000 RA SCT025 BKN040

Waarnemingen en weersverwachtingen van meer dan 4000 vliegvelden (METAR en TAF).

De beschikbare stations zijn de gele en rode punten op de kaart.

Ga met uw muis naar het station om de naam te zien.

Klik dan om waarnemingen en weersverwachtingen te zien.

kaart wijzigen: klik op de groene knoppen met een zwart kruis om in te zoomen, op de groene knop met een streepje om uit te zoomen of op de groene pijlen voor aangrenzende kaarten.


METAR-TAF: